sensor_id;sensor_type;location;lat;lon;timestamp;temperature;humidity
73750;SHT30;62058;48.406;-4.514;2023-07-29T00:01:34;18.73;94.77
73750;SHT30;62058;48.406;-4.514;2023-07-29T00:04:00;18.76;95.18
73750;SHT30;62058;48.406;-4.514;2023-07-29T00:06:26;18.77;95.19
73750;SHT30;62058;48.406;-4.514;2023-07-29T00:08:51;18.82;94.96
73750;SHT30;62058;48.406;-4.514;2023-07-29T00:11:16;18.76;94.59
73750;SHT30;62058;48.406;-4.514;2023-07-29T00:13:42;18.79;94.76
73750;SHT30;62058;48.406;-4.514;2023-07-29T00:16:07;18.77;94.54
73750;SHT30;62058;48.406;-4.514;2023-07-29T00:18:33;18.79;94.82
73750;SHT30;62058;48.406;-4.514;2023-07-29T00:20:59;18.82;94.70
73750;SHT30;62058;48.406;-4.514;2023-07-29T00:23:24;18.83;94.96
73750;SHT30;62058;48.406;-4.514;2023-07-29T00:25:49;18.83;95.12
73750;SHT30;62058;48.406;-4.514;2023-07-29T00:28:15;18.82;95.32
73750;SHT30;62058;48.406;-4.514;2023-07-29T00:30:40;18.80;95.62
73750;SHT30;62058;48.406;-4.514;2023-07-29T00:33:06;18.80;95.63
73750;SHT30;62058;48.406;-4.514;2023-07-29T00:35:31;18.82;95.80
73750;SHT30;62058;48.406;-4.514;2023-07-29T00:37:56;18.79;95.77
73750;SHT30;62058;48.406;-4.514;2023-07-29T00:40:22;18.79;95.87
73750;SHT30;62058;48.406;-4.514;2023-07-29T00:42:49;18.77;95.90
73750;SHT30;62058;48.406;-4.514;2023-07-29T00:45:15;18.77;96.05
73750;SHT30;62058;48.406;-4.514;2023-07-29T00:47:41;18.79;96.02
73750;SHT30;62058;48.406;-4.514;2023-07-29T00:50:09;18.82;96.31
73750;SHT30;62058;48.406;-4.514;2023-07-29T00:52:35;18.79;96.22
73750;SHT30;62058;48.406;-4.514;2023-07-29T00:55:00;18.82;96.45
73750;SHT30;62058;48.406;-4.514;2023-07-29T00:57:26;18.85;96.40
73750;SHT30;62058;48.406;-4.514;2023-07-29T00:59:52;18.79;96.54
73750;SHT30;62058;48.406;-4.514;2023-07-29T01:02:17;18.77;96.90
73750;SHT30;62058;48.406;-4.514;2023-07-29T01:04:43;18.82;97.10
73750;SHT30;62058;48.406;-4.514;2023-07-29T01:07:22;18.76;96.83
73750;SHT30;62058;48.406;-4.514;2023-07-29T01:10:02;18.65;96.66
73750;SHT30;62058;48.406;-4.514;2023-07-29T01:17:47;18.51;96.78
73750;SHT30;62058;48.406;-4.514;2023-07-29T01:20:15;18.42;97.32
73750;SHT30;62058;48.406;-4.514;2023-07-29T01:22:41;18.34;98.19
73750;SHT30;62058;48.406;-4.514;2023-07-29T01:25:07;18.21;97.87
73750;SHT30;62058;48.406;-4.514;2023-07-29T01:27:32;18.15;97.95
73750;SHT30;62058;48.406;-4.514;2023-07-29T01:29:58;18.11;97.31
73750;SHT30;62058;48.406;-4.514;2023-07-29T01:37:52;18.10;96.98
73750;SHT30;62058;48.406;-4.514;2023-07-29T01:40:19;18.10;97.43
73750;SHT30;62058;48.406;-4.514;2023-07-29T01:42:45;18.08;97.49
73750;SHT30;62058;48.406;-4.514;2023-07-29T01:45:11;18.07;96.21
73750;SHT30;62058;48.406;-4.514;2023-07-29T01:47:36;18.08;96.33
73750;SHT30;62058;48.406;-4.514;2023-07-29T01:50:06;18.04;96.40
73750;SHT30;62058;48.406;-4.514;2023-07-29T01:52:31;18.02;96.02
73750;SHT30;62058;48.406;-4.514;2023-07-29T01:54:57;18.02;96.14
73750;SHT30;62058;48.406;-4.514;2023-07-29T01:57:22;18.01;95.75
73750;SHT30;62058;48.406;-4.514;2023-07-29T01:59:47;18.01;96.18
73750;SHT30;62058;48.406;-4.514;2023-07-29T02:02:13;18.01;96.53
73750;SHT30;62058;48.406;-4.514;2023-07-29T02:04:38;18.02;96.86
73750;SHT30;62058;48.406;-4.514;2023-07-29T02:07:03;17.97;96.60
73750;SHT30;62058;48.406;-4.514;2023-07-29T02:09:29;17.94;96.26
73750;SHT30;62058;48.406;-4.514;2023-07-29T02:11:56;17.93;96.18
73750;SHT30;62058;48.406;-4.514;2023-07-29T02:14:21;17.86;95.87
73750;SHT30;62058;48.406;-4.514;2023-07-29T02:16:46;17.84;96.09
73750;SHT30;62058;48.406;-4.514;2023-07-29T02:19:12;17.84;96.27
73750;SHT30;62058;48.406;-4.514;2023-07-29T02:21:37;17.84;96.09
73750;SHT30;62058;48.406;-4.514;2023-07-29T02:24:03;17.88;96.27
73750;SHT30;62058;48.406;-4.514;2023-07-29T02:26:28;17.86;95.96
73750;SHT30;62058;48.406;-4.514;2023-07-29T02:28:54;17.83;96.12
73750;SHT30;62058;48.406;-4.514;2023-07-29T02:31:22;17.76;96.05
73750;SHT30;62058;48.406;-4.514;2023-07-29T02:33:48;17.76;96.06
73750;SHT30;62058;48.406;-4.514;2023-07-29T02:36:15;17.76;96.30
73750;SHT30;62058;48.406;-4.514;2023-07-29T02:38:40;17.73;96.34
73750;SHT30;62058;48.406;-4.514;2023-07-29T02:41:06;17.74;96.48
73750;SHT30;62058;48.406;-4.514;2023-07-29T02:43:34;17.73;96.11
73750;SHT30;62058;48.406;-4.514;2023-07-29T02:45:59;17.67;96.40
73750;SHT30;62058;48.406;-4.514;2023-07-29T02:48:25;17.67;96.61
73750;SHT30;62058;48.406;-4.514;2023-07-29T02:50:50;17.65;96.44
73750;SHT30;62058;48.406;-4.514;2023-07-29T02:53:16;17.56;96.29
73750;SHT30;62058;48.406;-4.514;2023-07-29T02:55:41;17.54;96.45
73750;SHT30;62058;48.406;-4.514;2023-07-29T02:58:07;17.49;96.42
73750;SHT30;62058;48.406;-4.514;2023-07-29T03:00:33;17.51;96.62
73750;SHT30;62058;48.406;-4.514;2023-07-29T03:02:59;17.45;96.52
73750;SHT30;62058;48.406;-4.514;2023-07-29T03:05:27;17.47;96.73
73750;SHT30;62058;48.406;-4.514;2023-07-29T03:07:52;17.42;96.81
73750;SHT30;62058;48.406;-4.514;2023-07-29T03:10:18;17.42;96.81
73750;SHT30;62058;48.406;-4.514;2023-07-29T03:12:43;17.43;96.72
73750;SHT30;62058;48.406;-4.514;2023-07-29T03:15:09;17.40;96.84
73750;SHT30;62058;48.406;-4.514;2023-07-29T03:17:34;17.39;96.72
73750;SHT30;62058;48.406;-4.514;2023-07-29T03:19:59;17.39;96.70
73750;SHT30;62058;48.406;-4.514;2023-07-29T03:22:25;17.37;96.58
73750;SHT30;62058;48.406;-4.514;2023-07-29T03:24:50;17.35;96.37
73750;SHT30;62058;48.406;-4.514;2023-07-29T03:27:15;17.43;96.58
73750;SHT30;62058;48.406;-4.514;2023-07-29T03:29:41;17.39;96.26
73750;SHT30;62058;48.406;-4.514;2023-07-29T03:32:07;17.40;96.27
73750;SHT30;62058;48.406;-4.514;2023-07-29T03:34:32;17.39;96.08
73750;SHT30;62058;48.406;-4.514;2023-07-29T03:36:58;17.43;96.11
73750;SHT30;62058;48.406;-4.514;2023-07-29T03:39:24;17.40;96.15
73750;SHT30;62058;48.406;-4.514;2023-07-29T03:41:49;17.42;96.43
73750;SHT30;62058;48.406;-4.514;2023-07-29T03:44:14;17.39;95.94
73750;SHT30;62058;48.406;-4.514;2023-07-29T03:46:40;17.36;95.90
73750;SHT30;62058;48.406;-4.514;2023-07-29T03:49:05;17.33;96.16
73750;SHT30;62058;48.406;-4.514;2023-07-29T03:51:30;17.32;96.15
73750;SHT30;62058;48.406;-4.514;2023-07-29T03:53:56;17.27;96.21
73750;SHT30;62058;48.406;-4.514;2023-07-29T03:56:21;17.26;96.33
73750;SHT30;62058;48.406;-4.514;2023-07-29T03:58:47;17.23;96.61
73750;SHT30;62058;48.406;-4.514;2023-07-29T04:01:15;17.20;96.42
73750;SHT30;62058;48.406;-4.514;2023-07-29T04:03:40;17.19;96.29
73750;SHT30;62058;48.406;-4.514;2023-07-29T04:06:05;17.19;96.51
73750;SHT30;62058;48.406;-4.514;2023-07-29T04:08:31;17.22;96.26
73750;SHT30;62058;48.406;-4.514;2023-07-29T04:10:56;17.20;96.35
73750;SHT30;62058;48.406;-4.514;2023-07-29T04:13:22;17.22;96.18
73750;SHT30;62058;48.406;-4.514;2023-07-29T04:15:48;17.23;96.35
73750;SHT30;62058;48.406;-4.514;2023-07-29T04:18:13;17.20;96.39
73750;SHT30;62058;48.406;-4.514;2023-07-29T04:20:39;17.18;95.91
73750;SHT30;62058;48.406;-4.514;2023-07-29T04:23:04;17.19;96.33
73750;SHT30;62058;48.406;-4.514;2023-07-29T04:25:29;17.13;96.25
73750;SHT30;62058;48.406;-4.514;2023-07-29T04:27:55;17.12;96.21
73750;SHT30;62058;48.406;-4.514;2023-07-29T04:30:22;17.09;96.04
73750;SHT30;62058;48.406;-4.514;2023-07-29T04:32:48;17.08;96.07
73750;SHT30;62058;48.406;-4.514;2023-07-29T04:35:13;17.09;96.16
73750;SHT30;62058;48.406;-4.514;2023-07-29T04:37:39;17.08;96.08
73750;SHT30;62058;48.406;-4.514;2023-07-29T04:40:06;17.09;96.02
73750;SHT30;62058;48.406;-4.514;2023-07-29T04:42:32;17.09;96.01
73750;SHT30;62058;48.406;-4.514;2023-07-29T04:44:57;17.12;96.18
73750;SHT30;62058;48.406;-4.514;2023-07-29T04:47:22;17.13;96.40
73750;SHT30;62058;48.406;-4.514;2023-07-29T04:49:48;17.16;95.58
73750;SHT30;62058;48.406;-4.514;2023-07-29T04:52:14;17.19;96.10
73750;SHT30;62058;48.406;-4.514;2023-07-29T04:54:40;17.19;95.40
73750;SHT30;62058;48.406;-4.514;2023-07-29T04:57:05;17.20;96.09
73750;SHT30;62058;48.406;-4.514;2023-07-29T04:59:31;17.26;95.55
73750;SHT30;62058;48.406;-4.514;2023-07-29T05:01:56;17.23;95.47
73750;SHT30;62058;48.406;-4.514;2023-07-29T05:04:22;17.27;95.94
73750;SHT30;62058;48.406;-4.514;2023-07-29T05:06:48;17.29;95.78
73750;SHT30;62058;48.406;-4.514;2023-07-29T05:09:18;17.27;95.67
73750;SHT30;62058;48.406;-4.514;2023-07-29T05:11:44;17.29;95.50
73750;SHT30;62058;48.406;-4.514;2023-07-29T05:14:11;17.27;95.36
73750;SHT30;62058;48.406;-4.514;2023-07-29T05:16:36;17.30;95.60
73750;SHT30;62058;48.406;-4.514;2023-07-29T05:19:01;17.30;95.34
73750;SHT30;62058;48.406;-4.514;2023-07-29T05:21:27;17.36;95.41
73750;SHT30;62058;48.406;-4.514;2023-07-29T05:23:52;17.42;95.85
73750;SHT30;62058;48.406;-4.514;2023-07-29T05:26:18;17.46;95.23
73750;SHT30;62058;48.406;-4.514;2023-07-29T05:28:43;17.49;95.46
73750;SHT30;62058;48.406;-4.514;2023-07-29T05:31:09;17.59;95.22
73750;SHT30;62058;48.406;-4.514;2023-07-29T05:33:34;17.63;94.20
73750;SHT30;62058;48.406;-4.514;2023-07-29T05:36:01;17.69;94.17
73750;SHT30;62058;48.406;-4.514;2023-07-29T05:38:26;17.77;94.87
73750;SHT30;62058;48.406;-4.514;2023-07-29T05:40:52;17.80;93.56
73750;SHT30;62058;48.406;-4.514;2023-07-29T05:43:17;17.87;94.12
73750;SHT30;62058;48.406;-4.514;2023-07-29T05:45:43;17.93;94.55
73750;SHT30;62058;48.406;-4.514;2023-07-29T05:48:08;18.00;93.04
73750;SHT30;62058;48.406;-4.514;2023-07-29T05:50:33;18.10;94.52
73750;SHT30;62058;48.406;-4.514;2023-07-29T05:52:59;18.19;93.71
73750;SHT30;62058;48.406;-4.514;2023-07-29T05:55:25;18.29;93.81
73750;SHT30;62058;48.406;-4.514;2023-07-29T05:57:50;18.32;92.56
73750;SHT30;62058;48.406;-4.514;2023-07-29T06:00:15;18.38;92.62
73750;SHT30;62058;48.406;-4.514;2023-07-29T06:02:41;18.48;92.68
73750;SHT30;62058;48.406;-4.514;2023-07-29T06:05:07;18.55;93.59
73750;SHT30;62058;48.406;-4.514;2023-07-29T06:07:32;18.59;92.81
73750;SHT30;62058;48.406;-4.514;2023-07-29T06:09:59;18.56;92.90
73750;SHT30;62058;48.406;-4.514;2023-07-29T06:12:25;18.65;93.29
73750;SHT30;62058;48.406;-4.514;2023-07-29T06:14:51;18.77;93.51
73750;SHT30;62058;48.406;-4.514;2023-07-29T06:17:16;18.85;91.93
73750;SHT30;62058;48.406;-4.514;2023-07-29T06:19:41;18.95;91.48
73750;SHT30;62058;48.406;-4.514;2023-07-29T06:22:07;18.99;92.41
73750;SHT30;62058;48.406;-4.514;2023-07-29T06:24:32;19.03;92.30
73750;SHT30;62058;48.406;-4.514;2023-07-29T06:26:58;19.00;91.60
73750;SHT30;62058;48.406;-4.514;2023-07-29T06:29:23;19.04;92.42
73750;SHT30;62058;48.406;-4.514;2023-07-29T06:31:49;19.07;91.34
73750;SHT30;62058;48.406;-4.514;2023-07-29T06:34:16;19.17;92.30
73750;SHT30;62058;48.406;-4.514;2023-07-29T06:36:42;19.20;91.37
73750;SHT30;62058;48.406;-4.514;2023-07-29T06:39:07;19.28;91.71
73750;SHT30;62058;48.406;-4.514;2023-07-29T06:41:33;19.34;91.28
73750;SHT30;62058;48.406;-4.514;2023-07-29T06:43:58;19.43;93.11
73750;SHT30;62058;48.406;-4.514;2023-07-29T06:46:23;19.43;90.57
73750;SHT30;62058;48.406;-4.514;2023-07-29T06:48:49;19.43;90.89
73750;SHT30;62058;48.406;-4.514;2023-07-29T06:51:14;19.46;91.15
73750;SHT30;62058;48.406;-4.514;2023-07-29T06:53:39;19.53;90.09
73750;SHT30;62058;48.406;-4.514;2023-07-29T06:56:05;19.63;90.43
73750;SHT30;62058;48.406;-4.514;2023-07-29T06:58:30;19.79;90.74
73750;SHT30;62058;48.406;-4.514;2023-07-29T07:00:56;19.89;91.37
73750;SHT30;62058;48.406;-4.514;2023-07-29T07:03:21;19.95;91.44
73750;SHT30;62058;48.406;-4.514;2023-07-29T07:05:46;19.96;89.54
73750;SHT30;62058;48.406;-4.514;2023-07-29T07:08:12;20.02;90.88
73750;SHT30;62058;48.406;-4.514;2023-07-29T07:10:37;20.12;89.62
73750;SHT30;62058;48.406;-4.514;2023-07-29T07:13:02;20.04;89.23
73750;SHT30;62058;48.406;-4.514;2023-07-29T07:15:28;19.95;89.00
73750;SHT30;62058;48.406;-4.514;2023-07-29T07:17:53;19.91;89.56
73750;SHT30;62058;48.406;-4.514;2023-07-29T07:20:19;19.85;89.89
73750;SHT30;62058;48.406;-4.514;2023-07-29T07:22:44;19.91;89.35
73750;SHT30;62058;48.406;-4.514;2023-07-29T07:25:09;19.70;88.90
73750;SHT30;62058;48.406;-4.514;2023-07-29T07:27:36;19.74;89.89
73750;SHT30;62058;48.406;-4.514;2023-07-29T07:30:02;19.70;89.47
73750;SHT30;62058;48.406;-4.514;2023-07-29T07:32:27;19.75;89.42
73750;SHT30;62058;48.406;-4.514;2023-07-29T07:34:52;19.75;89.41
73750;SHT30;62058;48.406;-4.514;2023-07-29T07:37:18;19.75;89.75
73750;SHT30;62058;48.406;-4.514;2023-07-29T07:39:43;19.73;89.66
73750;SHT30;62058;48.406;-4.514;2023-07-29T07:42:08;19.77;90.60
73750;SHT30;62058;48.406;-4.514;2023-07-29T07:44:34;19.73;90.64
73750;SHT30;62058;48.406;-4.514;2023-07-29T07:46:59;19.65;90.37
73750;SHT30;62058;48.406;-4.514;2023-07-29T07:49:25;19.68;91.36
73750;SHT30;62058;48.406;-4.514;2023-07-29T07:51:50;19.67;90.81
73750;SHT30;62058;48.406;-4.514;2023-07-29T07:54:16;19.65;91.26
73750;SHT30;62058;48.406;-4.514;2023-07-29T07:56:43;19.61;90.91
73750;SHT30;62058;48.406;-4.514;2023-07-29T07:59:08;19.54;91.05
73750;SHT30;62058;48.406;-4.514;2023-07-29T08:01:38;19.17;91.50
73750;SHT30;62058;48.406;-4.514;2023-07-29T08:04:03;18.39;93.47
73750;SHT30;62058;48.406;-4.514;2023-07-29T08:06:30;18.07;94.77
73750;SHT30;62058;48.406;-4.514;2023-07-29T08:08:55;17.84;96.21
73750;SHT30;62058;48.406;-4.514;2023-07-29T08:11:21;17.80;96.98
73750;SHT30;62058;48.406;-4.514;2023-07-29T08:13:46;17.78;98.31
73750;SHT30;62058;48.406;-4.514;2023-07-29T08:16:12;17.87;98.23
73750;SHT30;62058;48.406;-4.514;2023-07-29T08:18:38;17.94;99.37
73750;SHT30;62058;48.406;-4.514;2023-07-29T08:21:03;18.10;98.67
73750;SHT30;62058;48.406;-4.514;2023-07-29T08:23:30;18.22;99.64
73750;SHT30;62058;48.406;-4.514;2023-07-29T08:25:57;18.42;99.23
73750;SHT30;62058;48.406;-4.514;2023-07-29T08:28:28;18.56;98.84
73750;SHT30;62058;48.406;-4.514;2023-07-29T08:30:53;18.72;98.14
73750;SHT30;62058;48.406;-4.514;2023-07-29T08:33:19;18.77;97.78
73750;SHT30;62058;48.406;-4.514;2023-07-29T08:35:44;18.85;98.06
73750;SHT30;62058;48.406;-4.514;2023-07-29T08:38:09;19.04;99.73
73750;SHT30;62058;48.406;-4.514;2023-07-29T08:40:37;19.12;97.53
73750;SHT30;62058;48.406;-4.514;2023-07-29T08:43:08;19.09;97.23
73750;SHT30;62058;48.406;-4.514;2023-07-29T08:45:35;19.14;96.99
73750;SHT30;62058;48.406;-4.514;2023-07-29T08:48:02;19.28;97.24
73750;SHT30;62058;48.406;-4.514;2023-07-29T08:50:32;19.27;94.28
73750;SHT30;62058;48.406;-4.514;2023-07-29T08:52:58;19.30;95.30
73750;SHT30;62058;48.406;-4.514;2023-07-29T08:55:24;19.24;93.10
73750;SHT30;62058;48.406;-4.514;2023-07-29T08:57:50;19.17;89.94
73750;SHT30;62058;48.406;-4.514;2023-07-29T09:00:16;19.20;92.08
73750;SHT30;62058;48.406;-4.514;2023-07-29T09:02:42;19.14;94.15
73750;SHT30;62058;48.406;-4.514;2023-07-29T09:05:08;19.16;94.12
73750;SHT30;62058;48.406;-4.514;2023-07-29T09:07:34;19.03;94.52
73750;SHT30;62058;48.406;-4.514;2023-07-29T09:10:01;18.93;94.31
73750;SHT30;62058;48.406;-4.514;2023-07-29T09:12:27;18.82;94.75
73750;SHT30;62058;48.406;-4.514;2023-07-29T09:14:52;18.83;93.51
73750;SHT30;62058;48.406;-4.514;2023-07-29T09:17:19;18.85;94.76
73750;SHT30;62058;48.406;-4.514;2023-07-29T09:19:50;19.03;93.45
73750;SHT30;62058;48.406;-4.514;2023-07-29T09:22:20;19.13;94.59
73750;SHT30;62058;48.406;-4.514;2023-07-29T09:24:46;19.27;90.41
73750;SHT30;62058;48.406;-4.514;2023-07-29T09:27:27;19.54;90.74
73750;SHT30;62058;48.406;-4.514;2023-07-29T09:29:54;19.82;92.88
73750;SHT30;62058;48.406;-4.514;2023-07-29T09:32:21;19.95;93.54
73750;SHT30;62058;48.406;-4.514;2023-07-29T09:34:47;19.88;92.82
73750;SHT30;62058;48.406;-4.514;2023-07-29T09:37:23;19.86;92.93
73750;SHT30;62058;48.406;-4.514;2023-07-29T09:39:49;19.85;91.23
73750;SHT30;62058;48.406;-4.514;2023-07-29T09:42:19;19.89;92.94
73750;SHT30;62058;48.406;-4.514;2023-07-29T09:44:45;19.95;92.62
73750;SHT30;62058;48.406;-4.514;2023-07-29T09:47:22;20.05;93.35
73750;SHT30;62058;48.406;-4.514;2023-07-29T09:49:48;20.11;92.62
73750;SHT30;62058;48.406;-4.514;2023-07-29T09:52:18;20.09;91.85
73750;SHT30;62058;48.406;-4.514;2023-07-29T09:54:44;20.08;91.10
73750;SHT30;62058;48.406;-4.514;2023-07-29T09:57:11;20.06;90.37
73750;SHT30;62058;48.406;-4.514;2023-07-29T09:59:37;20.16;89.89
73750;SHT30;62058;48.406;-4.514;2023-07-29T10:02:03;20.24;89.90
73750;SHT30;62058;48.406;-4.514;2023-07-29T10:04:29;20.14;88.55
73750;SHT30;62058;48.406;-4.514;2023-07-29T10:06:56;20.12;89.03
73750;SHT30;62058;48.406;-4.514;2023-07-29T10:09:23;20.16;87.73
73750;SHT30;62058;48.406;-4.514;2023-07-29T10:11:49;20.46;89.46
73750;SHT30;62058;48.406;-4.514;2023-07-29T10:14:16;20.77;84.66
73750;SHT30;62058;48.406;-4.514;2023-07-29T10:16:42;21.10;88.46
73750;SHT30;62058;48.406;-4.514;2023-07-29T10:19:12;21.44;86.84
73750;SHT30;62058;48.406;-4.514;2023-07-29T10:21:44;21.63;87.21
73750;SHT30;62058;48.406;-4.514;2023-07-29T10:24:15;21.81;80.43
73750;SHT30;62058;48.406;-4.514;2023-07-29T10:26:44;21.91;83.15
73750;SHT30;62058;48.406;-4.514;2023-07-29T10:29:12;21.98;78.60
73750;SHT30;62058;48.406;-4.514;2023-07-29T10:31:40;22.23;85.89
73750;SHT30;62058;48.406;-4.514;2023-07-29T10:34:08;22.40;78.28
73750;SHT30;62058;48.406;-4.514;2023-07-29T10:36:35;22.71;84.84
73750;SHT30;62058;48.406;-4.514;2023-07-29T10:39:00;22.84;78.06
73750;SHT30;62058;48.406;-4.514;2023-07-29T10:47:28;22.81;74.54
73750;SHT30;62058;48.406;-4.514;2023-07-29T10:49:58;22.78;83.97
73750;SHT30;62058;48.406;-4.514;2023-07-29T10:55:02;23.01;82.21
73750;SHT30;62058;48.406;-4.514;2023-07-29T10:57:37;23.08;83.76
73750;SHT30;62058;48.406;-4.514;2023-07-29T11:00:04;22.88;80.31
73750;SHT30;62058;48.406;-4.514;2023-07-29T11:02:34;22.68;82.94
73750;SHT30;62058;48.406;-4.514;2023-07-29T11:05:25;22.57;82.09
73750;SHT30;62058;48.406;-4.514;2023-07-29T11:07:50;22.37;81.49
73750;SHT30;62058;48.406;-4.514;2023-07-29T11:10:16;22.19;78.80
73750;SHT30;62058;48.406;-4.514;2023-07-29T11:12:49;21.98;83.12
73750;SHT30;62058;48.406;-4.514;2023-07-29T11:15:25;21.98;81.84
73750;SHT30;62058;48.406;-4.514;2023-07-29T11:18:01;21.96;82.77
73750;SHT30;62058;48.406;-4.514;2023-07-29T11:20:29;22.03;80.25
73750;SHT30;62058;48.406;-4.514;2023-07-29T11:22:56;22.08;82.15
73750;SHT30;62058;48.406;-4.514;2023-07-29T11:25:24;22.37;81.03
73750;SHT30;62058;48.406;-4.514;2023-07-29T11:27:56;22.42;80.82
73750;SHT30;62058;48.406;-4.514;2023-07-29T11:30:22;22.46;79.73
73750;SHT30;62058;48.406;-4.514;2023-07-29T11:32:57;22.43;77.86
73750;SHT30;62058;48.406;-4.514;2023-07-29T11:35:23;22.24;78.90
73750;SHT30;62058;48.406;-4.514;2023-07-29T11:37:50;22.06;78.42
73750;SHT30;62058;48.406;-4.514;2023-07-29T11:40:17;21.74;78.82
73750;SHT30;62058;48.406;-4.514;2023-07-29T11:42:44;21.51;78.55
73750;SHT30;62058;48.406;-4.514;2023-07-29T11:45:10;21.35;79.51
73750;SHT30;62058;48.406;-4.514;2023-07-29T11:47:36;21.24;80.32
73750;SHT30;62058;48.406;-4.514;2023-07-29T11:50:06;21.18;81.71
73750;SHT30;62058;48.406;-4.514;2023-07-29T11:52:36;21.17;81.87
73750;SHT30;62058;48.406;-4.514;2023-07-29T11:55:02;21.31;81.22
73750;SHT30;62058;48.406;-4.514;2023-07-29T11:57:29;21.58;80.92
73750;SHT30;62058;48.406;-4.514;2023-07-29T11:59:55;21.95;78.88
73750;SHT30;62058;48.406;-4.514;2023-07-29T12:02:21;22.37;78.90
73750;SHT30;62058;48.406;-4.514;2023-07-29T12:04:48;22.70;78.59
73750;SHT30;62058;48.406;-4.514;2023-07-29T12:07:16;22.94;75.51
73750;SHT30;62058;48.406;-4.514;2023-07-29T12:09:42;22.90;75.29
73750;SHT30;62058;48.406;-4.514;2023-07-29T12:12:08;22.84;76.33
73750;SHT30;62058;48.406;-4.514;2023-07-29T12:14:34;22.52;75.22
73750;SHT30;62058;48.406;-4.514;2023-07-29T12:17:04;22.28;77.80
73750;SHT30;62058;48.406;-4.514;2023-07-29T12:19:37;21.96;76.93
73750;SHT30;62058;48.406;-4.514;2023-07-29T12:22:05;21.75;78.46
73750;SHT30;62058;48.406;-4.514;2023-07-29T12:24:36;21.71;79.53
73750;SHT30;62058;48.406;-4.514;2023-07-29T12:27:02;21.45;78.76
73750;SHT30;62058;48.406;-4.514;2023-07-29T12:29:28;21.35;81.61
73750;SHT30;62058;48.406;-4.514;2023-07-29T12:32:03;21.52;81.66
73750;SHT30;62058;48.406;-4.514;2023-07-29T12:34:29;21.62;81.01
73750;SHT30;62058;48.406;-4.514;2023-07-29T12:36:57;21.47;80.60
73750;SHT30;62058;48.406;-4.514;2023-07-29T12:39:27;21.37;80.95
73750;SHT30;62058;48.406;-4.514;2023-07-29T12:41:54;21.63;80.95
73750;SHT30;62058;48.406;-4.514;2023-07-29T12:44:22;22.20;78.23
73750;SHT30;62058;48.406;-4.514;2023-07-29T12:46:48;22.53;75.19
73750;SHT30;62058;48.406;-4.514;2023-07-29T12:49:13;22.53;77.22
73750;SHT30;62058;48.406;-4.514;2023-07-29T12:51:38;22.49;77.50
73750;SHT30;62058;48.406;-4.514;2023-07-29T12:54:04;22.59;76.79
73750;SHT30;62058;48.406;-4.514;2023-07-29T12:56:30;22.61;75.14
73750;SHT30;62058;48.406;-4.514;2023-07-29T12:58:59;22.66;75.04
73750;SHT30;62058;48.406;-4.514;2023-07-29T13:01:25;22.83;73.74
73750;SHT30;62058;48.406;-4.514;2023-07-29T13:03:51;23.31;73.22
73750;SHT30;62058;48.406;-4.514;2023-07-29T13:06:16;23.90;70.78
73750;SHT30;62058;48.406;-4.514;2023-07-29T13:08:43;24.17;69.20
73750;SHT30;62058;48.406;-4.514;2023-07-29T13:11:09;24.49;66.80
73750;SHT30;62058;48.406;-4.514;2023-07-29T13:13:35;24.46;65.86
73750;SHT30;62058;48.406;-4.514;2023-07-29T13:16:00;24.59;64.67
73750;SHT30;62058;48.406;-4.514;2023-07-29T13:18:26;24.91;63.73
73750;SHT30;62058;48.406;-4.514;2023-07-29T13:20:51;25.14;62.40
73750;SHT30;62058;48.406;-4.514;2023-07-29T13:23:17;25.76;62.77
73750;SHT30;62058;48.406;-4.514;2023-07-29T13:25:42;26.30;58.24
73750;SHT30;62058;48.406;-4.514;2023-07-29T13:28:11;26.65;59.23
73750;SHT30;62058;48.406;-4.514;2023-07-29T13:30:38;26.62;58.93
73750;SHT30;62058;48.406;-4.514;2023-07-29T13:33:04;26.54;59.83
73750;SHT30;62058;48.406;-4.514;2023-07-29T13:35:30;26.62;59.00
73750;SHT30;62058;48.406;-4.514;2023-07-29T13:37:55;26.92;60.41
73750;SHT30;62058;48.406;-4.514;2023-07-29T13:40:20;27.09;58.55
73750;SHT30;62058;48.406;-4.514;2023-07-29T13:42:46;26.81;55.04
73750;SHT30;62058;48.406;-4.514;2023-07-29T13:45:11;26.51;56.25
73750;SHT30;62058;48.406;-4.514;2023-07-29T13:47:37;26.58;58.18
73750;SHT30;62058;48.406;-4.514;2023-07-29T13:50:03;26.98;56.48
73750;SHT30;62058;48.406;-4.514;2023-07-29T13:52:28;26.89;55.36
73750;SHT30;62058;48.406;-4.514;2023-07-29T13:54:54;26.26;53.45
73750;SHT30;62058;48.406;-4.514;2023-07-29T13:57:19;25.80;54.94
73750;SHT30;62058;48.406;-4.514;2023-07-29T13:59:45;26.01;53.69
73750;SHT30;62058;48.406;-4.514;2023-07-29T14:02:10;26.47;54.74
73750;SHT30;62058;48.406;-4.514;2023-07-29T14:04:35;27.30;53.05
73750;SHT30;62058;48.406;-4.514;2023-07-29T14:07:01;27.77;51.35
73750;SHT30;62058;48.406;-4.514;2023-07-29T14:09:27;28.15;50.92
73750;SHT30;62058;48.406;-4.514;2023-07-29T14:11:53;28.45;51.74
73750;SHT30;62058;48.406;-4.514;2023-07-29T14:14:19;28.37;52.40
73750;SHT30;62058;48.406;-4.514;2023-07-29T14:16:44;27.83;55.58
73750;SHT30;62058;48.406;-4.514;2023-07-29T14:19:10;27.43;55.21
73750;SHT30;62058;48.406;-4.514;2023-07-29T14:21:35;27.15;55.37
73750;SHT30;62058;48.406;-4.514;2023-07-29T14:24:01;26.85;57.97
73750;SHT30;62058;48.406;-4.514;2023-07-29T14:26:26;26.40;56.82
73750;SHT30;62058;48.406;-4.514;2023-07-29T14:28:51;26.28;57.68
73750;SHT30;62058;48.406;-4.514;2023-07-29T14:31:17;26.34;58.92
73750;SHT30;62058;48.406;-4.514;2023-07-29T14:33:43;26.21;58.70
73750;SHT30;62058;48.406;-4.514;2023-07-29T14:36:09;25.86;59.37
73750;SHT30;62058;48.406;-4.514;2023-07-29T14:38:35;25.33;60.19
73750;SHT30;62058;48.406;-4.514;2023-07-29T14:41:00;25.36;60.51
73750;SHT30;62058;48.406;-4.514;2023-07-29T14:43:26;25.15;61.11
73750;SHT30;62058;48.406;-4.514;2023-07-29T14:45:51;25.04;61.62
73750;SHT30;62058;48.406;-4.514;2023-07-29T14:48:17;24.71;63.27
73750;SHT30;62058;48.406;-4.514;2023-07-29T14:50:42;24.36;64.47
73750;SHT30;62058;48.406;-4.514;2023-07-29T14:53:09;24.14;65.22
73750;SHT30;62058;48.406;-4.514;2023-07-29T14:55:34;23.61;66.23
73750;SHT30;62058;48.406;-4.514;2023-07-29T14:58:00;23.70;65.68
73750;SHT30;62058;48.406;-4.514;2023-07-29T15:00:25;24.19;65.01
73750;SHT30;62058;48.406;-4.514;2023-07-29T15:02:50;24.61;63.98
73750;SHT30;62058;48.406;-4.514;2023-07-29T15:05:16;24.61;63.26
73750;SHT30;62058;48.406;-4.514;2023-07-29T15:07:41;24.47;62.35
73750;SHT30;62058;48.406;-4.514;2023-07-29T15:10:07;24.57;62.17
73750;SHT30;62058;48.406;-4.514;2023-07-29T15:12:32;24.51;62.83
73750;SHT30;62058;48.406;-4.514;2023-07-29T15:14:58;24.75;62.36
73750;SHT30;62058;48.406;-4.514;2023-07-29T15:17:23;25.01;61.28
73750;SHT30;62058;48.406;-4.514;2023-07-29T15:19:48;25.04;60.54
73750;SHT30;62058;48.406;-4.514;2023-07-29T15:22:15;24.88;61.08
73750;SHT30;62058;48.406;-4.514;2023-07-29T15:24:41;24.91;60.57
73750;SHT30;62058;48.406;-4.514;2023-07-29T15:27:11;24.99;60.29
73750;SHT30;62058;48.406;-4.514;2023-07-29T15:29:37;25.18;60.38